Lone Star State — WLSY — position and weather

sailwx.info

Track history (hours):
 
Tides and Currents Weather Stations Pressure Air Temp Water Temp Dewpoint Dewpoint Depression Visibility Wind Speed Wind Dir Waves Ship Positions

Lone Star State

Owner: Crowley Petroleum Services, Inc., Jacksonville, FL. More information available from US FCC via Universal Licensing System and Coast Guard Vessel Documentation Center.

Last reported at 2018-Jan-24 05:10 UTC. Time now 2018-Jan-24 05:52 UTC.
Position N 29°58' W 093°52'.

Length 186 m; draft 8.5 m.

Type: Tanker. MMSI: 367633000.

Date/timePositionNaut miles runAvg speedWind from/ knotsBaromVisibWave heightAir tempDewpointWater temp
2018-Jan-24 05:10N 29°58' W 093°52'2 7.5
2018-Jan-24 04:56N 29°57' W 093°52'25 1.8
2018-Jan-23 14:43N 29°34' W 093°40'0 0.1
2018-Jan-23 14:25N 29°34' W 093°40'0 0.0
2018-Jan-23 13:58N 29°34' W 093°40'0 0.0
2018-Jan-23 13:25N 29°34' W 093°40'0 0.0
2018-Jan-23 12:43N 29°34' W 093°40'  
2018-Jan-20 17:04N 25°15' W 080°02'113.2
2018-Jan-20 17:00N 25°16' W 080°01'612.5
2018-Jan-20 16:31N 25°22' W 080°01'612.6
2018-Jan-20 16:00N 25°28' W 080°00'612.6
2018-Jan-20 15:30N 25°34' W 080°00'713.6
2018-Jan-20 15:01N 25°41' W 080°00'713.2
2018-Jan-20 14:31N 25°48' W 079°60'612.7
2018-Jan-20 14:00N 25°54' W 080°00'612.3
2018-Jan-20 13:30N 26°00' W 079°59'612.7
2018-Jan-20 13:00N 26°07' W 079°59'713.1
2018-Jan-20 12:31N 26°13' W 079°58'712.7
2018-Jan-20 12:00N 26°20' W 079°58'612.8
2018-Jan-20 11:30N 26°26' W 079°57'612.9
2018-Jan-20 11:00N 26°32' W 079°57'612.4
2018-Jan-20 10:30N 26°38' W 079°56'612.1
2018-Jan-20 10:00N 26°45' W 079°55'612.2
2018-Jan-20 09:30N 26°51' W 079°55'612.6
2018-Jan-20 08:59N 26°57' W 079°54'612.6
2018-Jan-20 08:31N 27°03' W 079°54'  
Track history (hours):
 
Tides and Currents Weather Stations Pressure Air Temp Water Temp Dewpoint Dewpoint Depression Visibility Wind Speed Wind Dir Waves Ship Positions

Lone Star State

Owner: Crowley Petroleum Services, Inc., Jacksonville, FL. More information available from US FCC via Universal Licensing System and Coast Guard Vessel Documentation Center.

Last reported at 2018-Jan-24 05:10 UTC. Time now 2018-Jan-24 05:52 UTC.
Position N 29°58' W 093°52'.

Length 186 m; draft 8.5 m.

Type: Tanker. MMSI: 367633000.

Date/timePositionNaut miles runAvg speedWind from/ knotsBaromVisibWave heightAir tempDewpointWater temp
2018-Jan-24 05:10N 29°58' W 093°52'2 7.5
2018-Jan-24 04:56N 29°57' W 093°52'25 1.8
2018-Jan-23 14:43N 29°34' W 093°40'0 0.1
2018-Jan-23 14:25N 29°34' W 093°40'0 0.0
2018-Jan-23 13:58N 29°34' W 093°40'0 0.0
2018-Jan-23 13:25N 29°34' W 093°40'0 0.0
2018-Jan-23 12:43N 29°34' W 093°40'  
2018-Jan-20 17:04N 25°15' W 080°02'113.2
2018-Jan-20 17:00N 25°16' W 080°01'612.5
2018-Jan-20 16:31N 25°22' W 080°01'612.6
2018-Jan-20 16:00N 25°28' W 080°00'612.6
2018-Jan-20 15:30N 25°34' W 080°00'713.6
2018-Jan-20 15:01N 25°41' W 080°00'713.2
2018-Jan-20 14:31N 25°48' W 079°60'612.7
2018-Jan-20 14:00N 25°54' W 080°00'612.3
2018-Jan-20 13:30N 26°00' W 079°59'612.7
2018-Jan-20 13:00N 26°07' W 079°59'713.1
2018-Jan-20 12:31N 26°13' W 079°58'712.7
2018-Jan-20 12:00N 26°20' W 079°58'612.8
2018-Jan-20 11:30N 26°26' W 079°57'612.9
2018-Jan-20 11:00N 26°32' W 079°57'612.4
2018-Jan-20 10:30N 26°38' W 079°56'612.1
2018-Jan-20 10:00N 26°45' W 079°55'612.2
2018-Jan-20 09:30N 26°51' W 079°55'612.6
2018-Jan-20 08:59N 26°57' W 079°54'612.6
2018-Jan-20 08:31N 27°03' W 079°54'  

Dump ship's entire track history